sensor_id;sensor_type;location;lat;lon;timestamp;pressure;altitude;pressure_sealevel;temperature;humidity
54329;BME280;40710;51.120;13.136;2023-03-01T00:02:09;100794.53;;;0.60;64.15
54329;BME280;40710;51.120;13.136;2023-03-01T00:04:34;100793.72;;;-0.10;64.14
54329;BME280;40710;51.120;13.136;2023-03-01T00:06:59;100799.53;;;-0.25;64.99
54329;BME280;40710;51.120;13.136;2023-03-01T00:09:24;100798.53;;;-0.34;65.24
54329;BME280;40710;51.120;13.136;2023-03-01T00:11:49;100797.22;;;-0.06;64.29
54329;BME280;40710;51.120;13.136;2023-03-01T00:14:14;100802.25;;;-0.17;64.90
54329;BME280;40710;51.120;13.136;2023-03-01T00:16:42;100811.16;;;-0.54;65.86
54329;BME280;40710;51.120;13.136;2023-03-01T00:19:14;100800.34;;;-0.29;65.12
54329;BME280;40710;51.120;13.136;2023-03-01T00:21:39;100802.81;;;-0.38;64.31
54329;BME280;40710;51.120;13.136;2023-03-01T00:24:04;100800.00;;;-0.52;65.63
54329;BME280;40710;51.120;13.136;2023-03-01T00:26:29;100804.19;;;-0.60;65.69
54329;BME280;40710;51.120;13.136;2023-03-01T00:28:54;100803.44;;;-0.53;65.68
54329;BME280;40710;51.120;13.136;2023-03-01T00:31:22;100793.03;;;-0.59;65.85
54329;BME280;40710;51.120;13.136;2023-03-01T00:33:48;100786.56;;;-0.29;66.00
54329;BME280;40710;51.120;13.136;2023-03-01T00:36:15;100780.75;;;-0.13;63.77
54329;BME280;40710;51.120;13.136;2023-03-01T00:38:43;100780.66;;;-0.21;64.16
54329;BME280;40710;51.120;13.136;2023-03-01T00:41:11;100771.16;;;-0.22;64.40
54329;BME280;40710;51.120;13.136;2023-03-01T00:43:36;100780.81;;;-0.08;63.86
54329;BME280;40710;51.120;13.136;2023-03-01T00:46:08;100788.78;;;-0.55;65.45
54329;BME280;40710;51.120;13.136;2023-03-01T00:48:33;100781.88;;;-0.55;64.83
54329;BME280;40710;51.120;13.136;2023-03-01T00:51:05;100790.22;;;-0.73;65.33
54329;BME280;40710;51.120;13.136;2023-03-01T00:53:29;100771.22;;;-0.18;63.86
54329;BME280;40710;51.120;13.136;2023-03-01T00:55:56;100764.88;;;-0.41;64.29
54329;BME280;40710;51.120;13.136;2023-03-01T00:58:21;100776.00;;;-0.46;64.57
54329;BME280;40710;51.120;13.136;2023-03-01T01:00:46;100771.56;;;-0.53;64.97
54329;BME280;40710;51.120;13.136;2023-03-01T01:03:10;100764.78;;;-0.48;65.03
54329;BME280;40710;51.120;13.136;2023-03-01T01:05:35;100767.94;;;-0.68;65.80
54329;BME280;40710;51.120;13.136;2023-03-01T01:07:59;100762.75;;;-0.68;65.20
54329;BME280;40710;51.120;13.136;2023-03-01T01:10:24;100751.94;;;-0.99;65.65
54329;BME280;40710;51.120;13.136;2023-03-01T01:12:48;100752.22;;;-0.82;66.25
54329;BME280;40710;51.120;13.136;2023-03-01T01:15:13;100752.84;;;-0.98;65.59
54329;BME280;40710;51.120;13.136;2023-03-01T01:17:40;100732.97;;;-0.44;64.04
54329;BME280;40710;51.120;13.136;2023-03-01T01:20:05;100749.97;;;-1.15;65.93
54329;BME280;40710;51.120;13.136;2023-03-01T01:22:30;100750.09;;;-0.49;63.88
54329;BME280;40710;51.120;13.136;2023-03-01T01:24:55;100749.44;;;-0.36;62.95
54329;BME280;40710;51.120;13.136;2023-03-01T01:27:21;100748.41;;;-1.07;64.68
54329;BME280;40710;51.120;13.136;2023-03-01T01:29:45;100742.88;;;-0.75;63.94
54329;BME280;40710;51.120;13.136;2023-03-01T01:32:10;100739.25;;;-0.85;65.01
54329;BME280;40710;51.120;13.136;2023-03-01T01:34:34;100747.34;;;-1.17;64.55
54329;BME280;40710;51.120;13.136;2023-03-01T01:36:59;100744.34;;;-0.91;63.91
54329;BME280;40710;51.120;13.136;2023-03-01T01:39:26;100732.72;;;-0.63;63.89
54329;BME280;40710;51.120;13.136;2023-03-01T01:41:51;100734.59;;;-0.51;63.03
54329;BME280;40710;51.120;13.136;2023-03-01T01:47:02;100727.91;;;-0.38;62.75
54329;BME280;40710;51.120;13.136;2023-03-01T01:49:40;100721.78;;;-0.45;62.01
54329;BME280;40710;51.120;13.136;2023-03-01T01:52:14;100726.00;;;-1.08;63.88
54329;BME280;40710;51.120;13.136;2023-03-01T01:54:49;100727.94;;;-0.94;64.27
54329;BME280;40710;51.120;13.136;2023-03-01T01:57:20;100722.56;;;-1.08;64.51
54329;BME280;40710;51.120;13.136;2023-03-01T01:59:51;100719.50;;;-0.83;64.39
54329;BME280;40710;51.120;13.136;2023-03-01T02:02:18;100724.31;;;-1.06;64.47
54329;BME280;40710;51.120;13.136;2023-03-01T02:04:43;100720.66;;;-1.20;64.66
54329;BME280;40710;51.120;13.136;2023-03-01T02:07:22;100713.38;;;-0.91;64.24
54329;BME280;40710;51.120;13.136;2023-03-01T02:09:50;100707.75;;;-0.64;62.94
54329;BME280;40710;51.120;13.136;2023-03-01T02:12:19;100719.47;;;-0.84;63.54
54329;BME280;40710;51.120;13.136;2023-03-01T02:14:44;100717.94;;;-0.73;62.76
54329;BME280;40710;51.120;13.136;2023-03-01T02:17:11;100720.06;;;-1.02;63.76
54329;BME280;40710;51.120;13.136;2023-03-01T02:22:28;100724.00;;;-1.26;64.08
54329;BME280;40710;51.120;13.136;2023-03-01T02:25:21;100730.00;;;-1.25;65.00
54329;BME280;40710;51.120;13.136;2023-03-01T02:28:18;100724.97;;;-1.19;64.14
54329;BME280;40710;51.120;13.136;2023-03-01T02:30:46;100723.41;;;-1.09;64.47
54329;BME280;40710;51.120;13.136;2023-03-01T02:33:34;100722.16;;;-1.33;64.42
54329;BME280;40710;51.120;13.136;2023-03-01T02:36:03;100718.25;;;-1.09;64.01
54329;BME280;40710;51.120;13.136;2023-03-01T02:38:30;100711.50;;;-1.01;63.67
54329;BME280;40710;51.120;13.136;2023-03-01T02:40:58;100710.84;;;-0.86;63.36
54329;BME280;40710;51.120;13.136;2023-03-01T02:43:29;100710.72;;;-0.96;63.38
54329;BME280;40710;51.120;13.136;2023-03-01T02:46:02;100711.38;;;-1.07;62.77
54329;BME280;40710;51.120;13.136;2023-03-01T02:48:28;100706.41;;;-0.95;63.12
54329;BME280;40710;51.120;13.136;2023-03-01T02:53:47;100700.66;;;-1.32;63.34
54329;BME280;40710;51.120;13.136;2023-03-01T02:56:13;100698.13;;;-1.30;63.52
54329;BME280;40710;51.120;13.136;2023-03-01T02:58:40;100693.66;;;-1.41;64.23
54329;BME280;40710;51.120;13.136;2023-03-01T03:01:09;100699.66;;;-1.42;64.10
54329;BME280;40710;51.120;13.136;2023-03-01T03:03:34;100690.28;;;-1.35;63.59
54329;BME280;40710;51.120;13.136;2023-03-01T03:05:58;100691.22;;;-1.82;63.72
54329;BME280;40710;51.120;13.136;2023-03-01T03:08:23;100699.84;;;-1.80;64.38
54329;BME280;40710;51.120;13.136;2023-03-01T03:10:48;100704.31;;;-1.69;65.57
54329;BME280;40710;51.120;13.136;2023-03-01T03:13:14;100710.00;;;-1.86;65.73
54329;BME280;40710;51.120;13.136;2023-03-01T03:15:41;100707.00;;;-1.63;65.34
54329;BME280;40710;51.120;13.136;2023-03-01T03:18:09;100700.75;;;-1.76;64.17
54329;BME280;40710;51.120;13.136;2023-03-01T03:20:36;100685.19;;;-1.32;63.74
54329;BME280;40710;51.120;13.136;2023-03-01T03:23:03;100687.38;;;-1.55;63.40
54329;BME280;40710;51.120;13.136;2023-03-01T03:25:29;100676.00;;;-1.16;62.58
54329;BME280;40710;51.120;13.136;2023-03-01T03:27:55;100683.31;;;-1.42;63.01
54329;BME280;40710;51.120;13.136;2023-03-01T03:30:26;100678.13;;;-1.44;62.95
54329;BME280;40710;51.120;13.136;2023-03-01T03:32:51;100679.44;;;-1.17;63.00
54329;BME280;40710;51.120;13.136;2023-03-01T03:35:32;100664.81;;;-1.17;62.68
54329;BME280;40710;51.120;13.136;2023-03-01T03:37:59;100660.78;;;-0.99;61.28
54329;BME280;40710;51.120;13.136;2023-03-01T03:42:55;100657.06;;;-1.17;62.00
54329;BME280;40710;51.120;13.136;2023-03-01T03:45:20;100664.47;;;-1.38;62.82
54329;BME280;40710;51.120;13.136;2023-03-01T03:47:45;100670.16;;;-1.59;63.43
54329;BME280;40710;51.120;13.136;2023-03-01T03:50:15;100667.03;;;-1.40;62.45
54329;BME280;40710;51.120;13.136;2023-03-01T03:52:40;100668.25;;;-1.69;63.23
54329;BME280;40710;51.120;13.136;2023-03-01T03:55:06;100663.34;;;-1.54;63.24
54329;BME280;40710;51.120;13.136;2023-03-01T03:57:35;100654.22;;;-1.34;62.49
54329;BME280;40710;51.120;13.136;2023-03-01T03:59:59;100659.84;;;-1.56;63.33
54329;BME280;40710;51.120;13.136;2023-03-01T04:02:24;100661.03;;;-1.89;63.73
54329;BME280;40710;51.120;13.136;2023-03-01T04:04:49;100669.47;;;-1.95;64.39
54329;BME280;40710;51.120;13.136;2023-03-01T04:07:17;100662.22;;;-1.70;63.40
54329;BME280;40710;51.120;13.136;2023-03-01T04:09:42;100663.00;;;-1.74;63.70
54329;BME280;40710;51.120;13.136;2023-03-01T04:12:07;100664.09;;;-1.60;63.09
54329;BME280;40710;51.120;13.136;2023-03-01T04:14:31;100671.94;;;-1.54;62.97
54329;BME280;40710;51.120;13.136;2023-03-01T04:16:56;100666.47;;;-1.72;63.35
54329;BME280;40710;51.120;13.136;2023-03-01T04:19:20;100673.75;;;-1.48;62.85
54329;BME280;40710;51.120;13.136;2023-03-01T04:21:45;100673.53;;;-2.07;63.59
54329;BME280;40710;51.120;13.136;2023-03-01T04:24:09;100674.25;;;-1.69;63.49
54329;BME280;40710;51.120;13.136;2023-03-01T04:26:34;100677.19;;;-1.98;63.76
54329;BME280;40710;51.120;13.136;2023-03-01T04:28:58;100680.00;;;-1.84;63.91
54329;BME280;40710;51.120;13.136;2023-03-01T04:31:23;100681.16;;;-2.14;64.23
54329;BME280;40710;51.120;13.136;2023-03-01T04:33:53;100677.72;;;-2.13;64.89
54329;BME280;40710;51.120;13.136;2023-03-01T04:36:21;100682.13;;;-2.08;64.48
54329;BME280;40710;51.120;13.136;2023-03-01T04:38:46;100675.56;;;-2.35;65.40
54329;BME280;40710;51.120;13.136;2023-03-01T04:41:11;100665.56;;;-2.20;64.31
54329;BME280;40710;51.120;13.136;2023-03-01T04:43:37;100668.34;;;-2.09;64.46
54329;BME280;40710;51.120;13.136;2023-03-01T04:46:03;100672.53;;;-2.14;64.69
54329;BME280;40710;51.120;13.136;2023-03-01T04:48:29;100676.72;;;-1.77;63.20
54329;BME280;40710;51.120;13.136;2023-03-01T04:50:53;100670.19;;;-2.03;63.34
54329;BME280;40710;51.120;13.136;2023-03-01T04:53:18;100673.41;;;-2.15;63.83
54329;BME280;40710;51.120;13.136;2023-03-01T04:55:43;100667.28;;;-2.20;64.35
54329;BME280;40710;51.120;13.136;2023-03-01T04:58:08;100664.78;;;-2.16;63.19
54329;BME280;40710;51.120;13.136;2023-03-01T05:00:33;100670.13;;;-2.06;63.70
54329;BME280;40710;51.120;13.136;2023-03-01T05:03:00;100669.38;;;-2.01;63.46
54329;BME280;40710;51.120;13.136;2023-03-01T05:05:26;100663.41;;;-1.98;62.93
54329;BME280;40710;51.120;13.136;2023-03-01T05:07:53;100670.41;;;-1.93;62.69
54329;BME280;40710;51.120;13.136;2023-03-01T05:10:19;100663.19;;;-2.09;63.17
54329;BME280;40710;51.120;13.136;2023-03-01T05:12:43;100655.41;;;-2.14;63.02
54329;BME280;40710;51.120;13.136;2023-03-01T05:15:09;100660.56;;;-2.14;63.31
54329;BME280;40710;51.120;13.136;2023-03-01T05:17:34;100652.63;;;-2.23;63.37
54329;BME280;40710;51.120;13.136;2023-03-01T05:19:58;100649.81;;;-2.35;63.51
54329;BME280;40710;51.120;13.136;2023-03-01T05:22:23;100658.03;;;-2.53;63.21
54329;BME280;40710;51.120;13.136;2023-03-01T05:24:48;100656.56;;;-2.40;64.13
54329;BME280;40710;51.120;13.136;2023-03-01T05:27:12;100656.03;;;-2.68;63.92
54329;BME280;40710;51.120;13.136;2023-03-01T05:29:37;100652.66;;;-2.64;64.35
54329;BME280;40710;51.120;13.136;2023-03-01T05:32:03;100662.50;;;-2.44;63.95
54329;BME280;40710;51.120;13.136;2023-03-01T05:34:34;100650.72;;;-2.33;63.02
54329;BME280;40710;51.120;13.136;2023-03-01T05:36:59;100653.22;;;-2.38;63.34
54329;BME280;40710;51.120;13.136;2023-03-01T05:39:26;100653.72;;;-2.12;62.65
54329;BME280;40710;51.120;13.136;2023-03-01T05:41:56;100662.66;;;-2.38;63.32
54329;BME280;40710;51.120;13.136;2023-03-01T05:44:21;100657.75;;;-2.24;63.19
54329;BME280;40710;51.120;13.136;2023-03-01T05:46:46;100662.06;;;-3.04;64.69
54329;BME280;40710;51.120;13.136;2023-03-01T05:49:11;100668.19;;;-2.61;63.88
54329;BME280;40710;51.120;13.136;2023-03-01T05:51:37;100674.91;;;-2.68;64.71
54329;BME280;40710;51.120;13.136;2023-03-01T05:54:02;100662.69;;;-2.35;63.76
54329;BME280;40710;51.120;13.136;2023-03-01T05:56:26;100667.50;;;-2.52;63.17
54329;BME280;40710;51.120;13.136;2023-03-01T05:58:51;100669.41;;;-2.43;63.68
54329;BME280;40710;51.120;13.136;2023-03-01T06:01:15;100674.31;;;-2.56;63.32
54329;BME280;40710;51.120;13.136;2023-03-01T06:03:40;100677.97;;;-2.82;64.09
54329;BME280;40710;51.120;13.136;2023-03-01T06:06:05;100668.59;;;-2.41;62.86
54329;BME280;40710;51.120;13.136;2023-03-01T06:08:29;100664.50;;;-2.72;64.07
54329;BME280;40710;51.120;13.136;2023-03-01T06:10:54;100672.41;;;-2.64;64.90
54329;BME280;40710;51.120;13.136;2023-03-01T06:13:18;100673.38;;;-2.97;65.08
54329;BME280;40710;51.120;13.136;2023-03-01T06:15:43;100669.63;;;-2.72;64.76
54329;BME280;40710;51.120;13.136;2023-03-01T06:18:08;100667.97;;;-2.72;63.98
54329;BME280;40710;51.120;13.136;2023-03-01T06:20:33;100663.09;;;-2.97;64.65
54329;BME280;40710;51.120;13.136;2023-03-01T06:22:57;100662.81;;;-2.70;64.24
54329;BME280;40710;51.120;13.136;2023-03-01T06:25:25;100654.03;;;-2.39;62.96
54329;BME280;40710;51.120;13.136;2023-03-01T06:27:50;100660.03;;;-2.40;62.78
54329;BME280;40710;51.120;13.136;2023-03-01T06:30:18;100654.34;;;-2.23;62.21
54329;BME280;40710;51.120;13.136;2023-03-01T06:32:43;100660.94;;;-2.38;62.94
54329;BME280;40710;51.120;13.136;2023-03-01T06:35:09;100665.16;;;-2.41;62.90
54329;BME280;40710;51.120;13.136;2023-03-01T06:37:34;100671.03;;;-2.04;61.92
54329;BME280;40710;51.120;13.136;2023-03-01T06:39:59;100667.56;;;-2.06;62.39
54329;BME280;40710;51.120;13.136;2023-03-01T06:42:24;100666.50;;;-2.16;62.38
54329;BME280;40710;51.120;13.136;2023-03-01T06:44:48;100666.94;;;-1.93;61.76
54329;BME280;40710;51.120;13.136;2023-03-01T06:47:13;100673.84;;;-1.92;61.85
54329;BME280;40710;51.120;13.136;2023-03-01T06:49:37;100668.41;;;-1.60;61.23
54329;BME280;40710;51.120;13.136;2023-03-01T06:52:02;100667.09;;;-1.37;60.37
54329;BME280;40710;51.120;13.136;2023-03-01T06:54:27;100655.31;;;-1.21;60.17
54329;BME280;40710;51.120;13.136;2023-03-01T06:56:52;100665.47;;;-1.28;60.01
54329;BME280;40710;51.120;13.136;2023-03-01T06:59:18;100653.19;;;-0.88;59.72
54329;BME280;40710;51.120;13.136;2023-03-01T07:01:43;100654.03;;;-0.91;58.98
54329;BME280;40710;51.120;13.136;2023-03-01T07:04:07;100654.06;;;-0.86;59.53
54329;BME280;40710;51.120;13.136;2023-03-01T07:06:32;100651.31;;;-0.36;58.54
54329;BME280;40710;51.120;13.136;2023-03-01T07:08:57;100639.22;;;0.47;56.62
54329;BME280;40710;51.120;13.136;2023-03-01T07:11:21;100606.31;;;3.17;50.24
54329;BME280;40710;51.120;13.136;2023-03-01T07:13:46;100579.47;;;4.60;45.34
54329;BME280;40710;51.120;13.136;2023-03-01T07:16:11;100588.88;;;3.54;46.43
54329;BME280;40710;51.120;13.136;2023-03-01T07:18:35;100615.06;;;2.48;49.47
54329;BME280;40710;51.120;13.136;2023-03-01T07:21:05;100624.53;;;1.98;51.51
54329;BME280;40710;51.120;13.136;2023-03-01T07:23:30;100623.63;;;1.81;52.20
54329;BME280;40710;51.120;13.136;2023-03-01T07:25:54;100620.25;;;2.36;51.41
54329;BME280;40710;51.120;13.136;2023-03-01T07:28:19;100613.31;;;2.75;50.10
54329;BME280;40710;51.120;13.136;2023-03-01T07:30:44;100602.88;;;3.07;48.89
54329;BME280;40710;51.120;13.136;2023-03-01T07:33:09;100603.56;;;3.55;48.87
54329;BME280;40710;51.120;13.136;2023-03-01T07:35:33;100598.38;;;3.57;48.39
54329;BME280;40710;51.120;13.136;2023-03-01T07:37:58;100578.63;;;4.55;45.83
54329;BME280;40710;51.120;13.136;2023-03-01T07:40:22;100573.97;;;4.89;45.62
54329;BME280;40710;51.120;13.136;2023-03-01T07:42:47;100577.41;;;4.93;45.93
54329;BME280;40710;51.120;13.136;2023-03-01T07:45:11;100580.91;;;4.89;46.07
54329;BME280;40710;51.120;13.136;2023-03-01T07:47:37;100567.38;;;6.02;43.51
54329;BME280;40710;51.120;13.136;2023-03-01T07:50:03;100578.53;;;5.46;44.28
54329;BME280;40710;51.120;13.136;2023-03-01T07:52:28;100571.81;;;5.28;44.71
54329;BME280;40710;51.120;13.136;2023-03-01T07:54:52;100546.88;;;7.67;40.64
54329;BME280;40710;51.120;13.136;2023-03-01T07:57:17;100552.31;;;7.58;40.01
54329;BME280;40710;51.120;13.136;2023-03-01T07:59:42;100545.59;;;7.85;40.05
54329;BME280;40710;51.120;13.136;2023-03-01T08:02:08;100547.94;;;7.58;40.20
54329;BME280;40710;51.120;13.136;2023-03-01T08:04:33;100558.31;;;7.21;41.08
54329;BME280;40710;51.120;13.136;2023-03-01T08:06:57;100554.13;;;7.56;40.72
54329;BME280;40710;51.120;13.136;2023-03-01T08:09:22;100547.25;;;7.91;40.51
54329;BME280;40710;51.120;13.136;2023-03-01T08:11:47;100534.16;;;8.63;38.64
54329;BME280;40710;51.120;13.136;2023-03-01T08:14:11;100536.13;;;8.87;38.72
54329;BME280;40710;51.120;13.136;2023-03-01T08:16:36;100538.19;;;8.40;39.21
54329;BME280;40710;51.120;13.136;2023-03-01T08:19:06;100535.81;;;8.65;39.06
54329;BME280;40710;51.120;13.136;2023-03-01T08:21:31;100519.28;;;9.56;37.61
54329;BME280;40710;51.120;13.136;2023-03-01T08:23:56;100524.22;;;9.67;37.50
54329;BME280;40710;51.120;13.136;2023-03-01T08:26:21;100518.88;;;9.98;38.17
54329;BME280;40710;51.120;13.136;2023-03-01T08:28:47;100503.78;;;10.82;36.07
54329;BME280;40710;51.120;13.136;2023-03-01T08:31:27;100516.63;;;11.14;36.26
54329;BME280;40710;51.120;13.136;2023-03-01T08:33:56;100515.25;;;11.04;36.77
54329;BME280;40710;51.120;13.136;2023-03-01T08:36:30;100497.16;;;12.10;34.76
54329;BME280;40710;51.120;13.136;2023-03-01T08:38:55;100511.00;;;12.97;32.43
54329;BME280;40710;51.120;13.136;2023-03-01T08:41:20;100510.59;;;13.07;32.97
54329;BME280;40710;51.120;13.136;2023-03-01T08:43:44;100510.72;;;13.43;32.28
54329;BME280;40710;51.120;13.136;2023-03-01T08:46:10;100498.41;;;14.16;31.06
54329;BME280;40710;51.120;13.136;2023-03-01T08:48:34;100518.84;;;13.57;32.63
54329;BME280;40710;51.120;13.136;2023-03-01T08:51:10;100503.97;;;13.74;32.22
54329;BME280;40710;51.120;13.136;2023-03-01T08:53:34;100503.66;;;13.63;32.50
54329;BME280;40710;51.120;13.136;2023-03-01T08:56:02;100491.06;;;14.22;31.20
54329;BME280;40710;51.120;13.136;2023-03-01T08:58:27;100488.91;;;14.47;30.87
54329;BME280;40710;51.120;13.136;2023-03-01T09:00:51;100485.50;;;14.63;30.53
54329;BME280;40710;51.120;13.136;2023-03-01T09:03:16;100484.16;;;14.54;30.99
54329;BME280;40710;51.120;13.136;2023-03-01T09:05:40;100473.19;;;14.27;31.01
54329;BME280;40710;51.120;13.136;2023-03-01T09:08:05;100471.22;;;14.48;30.94
54329;BME280;40710;51.120;13.136;2023-03-01T09:10:30;100471.69;;;15.07;29.85
54329;BME280;40710;51.120;13.136;2023-03-01T09:12:54;100481.56;;;14.52;30.87
54329;BME280;40710;51.120;13.136;2023-03-01T09:15:19;100475.03;;;14.42;30.49
54329;BME280;40710;51.120;13.136;2023-03-01T09:17:43;100469.81;;;14.75;29.92
54329;BME280;40710;51.120;13.136;2023-03-01T09:20:08;100474.75;;;14.48;30.70
54329;BME280;40710;51.120;13.136;2023-03-01T09:22:33;100468.97;;;15.24;29.78
54329;BME280;40710;51.120;13.136;2023-03-01T09:24:58;100459.75;;;15.47;29.12
54329;BME280;40710;51.120;13.136;2023-03-01T09:27:23;100450.94;;;15.79;29.49
54329;BME280;40710;51.120;13.136;2023-03-01T09:29:48;100447.16;;;16.29;28.75
54329;BME280;40710;51.120;13.136;2023-03-01T09:32:13;100450.50;;;15.86;29.50
54329;BME280;40710;51.120;13.136;2023-03-01T09:34:37;100445.81;;;16.95;28.26
54329;BME280;40710;51.120;13.136;2023-03-01T09:37:22;100440.19;;;17.14;27.11
54329;BME280;40710;51.120;13.136;2023-03-01T09:39:46;100443.69;;;15.66;28.25
54329;BME280;40710;51.120;13.136;2023-03-01T09:42:12;100445.50;;;16.57;27.99
54329;BME280;40710;51.120;13.136;2023-03-01T09:44:54;100427.56;;;17.04;26.76
54329;BME280;40710;51.120;13.136;2023-03-01T09:47:29;100435.47;;;16.91;26.80
54329;BME280;40710;51.120;13.136;2023-03-01T09:50:13;100437.66;;;17.40;26.30
54329;BME280;40710;51.120;13.136;2023-03-01T09:55:26;100438.59;;;17.39;26.44
54329;BME280;40710;51.120;13.136;2023-03-01T09:58:22;100455.72;;;15.08;28.18
54329;BME280;40710;51.120;13.136;2023-03-01T10:00:51;100452.78;;;16.53;27.45
54329;BME280;40710;51.120;13.136;2023-03-01T10:03:30;100437.25;;;17.61;26.13
54329;BME280;40710;51.120;13.136;2023-03-01T10:06:20;100452.53;;;17.15;26.82
54329;BME280;40710;51.120;13.136;2023-03-01T10:08:59;100451.75;;;17.28;28.48
54329;BME280;40710;51.120;13.136;2023-03-01T10:11:27;100430.09;;;18.54;25.63
54329;BME280;40710;51.120;13.136;2023-03-01T10:14:01;100437.50;;;17.98;25.61
54329;BME280;40710;51.120;13.136;2023-03-01T10:16:48;100452.53;;;17.15;27.55
54329;BME280;40710;51.120;13.136;2023-03-01T10:19:23;100453.84;;;17.08;27.51
54329;BME280;40710;51.120;13.136;2023-03-01T10:21:50;100448.13;;;17.14;27.14
54329;BME280;40710;51.120;13.136;2023-03-01T10:24:18;100436.44;;;17.73;26.16
54329;BME280;40710;51.120;13.136;2023-03-01T10:27:03;100438.38;;;17.56;26.40
54329;BME280;40710;51.120;13.136;2023-03-01T10:29:39;100440.13;;;17.70;26.73
54329;BME280;40710;51.120;13.136;2023-03-01T10:32:06;100444.44;;;17.31;26.68
54329;BME280;40710;51.120;13.136;2023-03-01T10:34:33;100443.16;;;17.37;27.12
54329;BME280;40710;51.120;13.136;2023-03-01T10:37:13;100443.44;;;16.91;27.26
54329;BME280;40710;51.120;13.136;2023-03-01T10:40:12;100428.13;;;16.51;27.50
54329;BME280;40710;51.120;13.136;2023-03-01T10:42:41;100427.31;;;17.35;27.19
54329;BME280;40710;51.120;13.136;2023-03-01T10:45:37;100421.94;;;18.83;27.67
54329;BME280;40710;51.120;13.136;2023-03-01T10:48:26;100418.25;;;18.07;26.46
54329;BME280;40710;51.120;13.136;2023-03-01T10:53:35;100433.06;;;16.72;27.51
54329;BME280;40710;51.120;13.136;2023-03-01T10:56:05;100431.97;;;17.32;27.35
54329;BME280;40710;51.120;13.136;2023-03-01T10:58:32;100432.56;;;16.36;29.23
54329;BME280;40710;51.120;13.136;2023-03-01T11:01:03;100430.41;;;16.57;27.88
54329;BME280;40710;51.120;13.136;2023-03-01T11:03:37;100416.34;;;17.27;27.88
54329;BME280;40710;51.120;13.136;2023-03-01T11:08:44;100417.06;;;16.73;27.98
54329;BME280;40710;51.120;13.136;2023-03-01T11:11:32;100412.03;;;16.97;27.26
54329;BME280;40710;51.120;13.136;2023-03-01T11:14:17;100419.69;;;17.02;27.97
54329;BME280;40710;51.120;13.136;2023-03-01T11:16:47;100411.75;;;17.02;27.48
54329;BME280;40710;51.120;13.136;2023-03-01T11:19:16;100415.47;;;17.27;27.43
54329;BME280;40710;51.120;13.136;2023-03-01T11:21:52;100397.53;;;17.45;27.01
54329;BME280;40710;51.120;13.136;2023-03-01T11:24:19;100410.91;;;17.01;27.67
54329;BME280;40710;51.120;13.136;2023-03-01T11:26:53;100402.09;;;18.23;26.49
54329;BME280;40710;51.120;13.136;2023-03-01T11:29:38;100412.03;;;17.12;27.39
54329;BME280;40710;51.120;13.136;2023-03-01T11:32:08;100407.09;;;17.47;26.45
54329;BME280;40710;51.120;13.136;2023-03-01T11:34:43;100411.16;;;16.54;27.49
54329;BME280;40710;51.120;13.136;2023-03-01T11:37:31;100414.19;;;16.33;27.72
54329;BME280;40710;51.120;13.136;2023-03-01T11:40:12;100410.66;;;15.88;28.69
54329;BME280;40710;51.120;13.136;2023-03-01T11:48:38;100389.94;;;16.68;27.81
54329;BME280;40710;51.120;13.136;2023-03-01T11:51:19;100391.06;;;16.78;28.37
54329;BME280;40710;51.120;13.136;2023-03-01T11:54:06;100389.25;;;16.79;27.66
54329;BME280;40710;51.120;13.136;2023-03-01T11:56:39;100392.56;;;16.82;27.79
54329;BME280;40710;51.120;13.136;2023-03-01T11:59:18;100381.91;;;17.26;27.97
54329;BME280;40710;51.120;13.136;2023-03-01T12:02:22;100382.06;;;17.37;27.98
54329;BME280;40710;51.120;13.136;2023-03-01T12:05:05;100380.28;;;17.37;28.06
54329;BME280;40710;51.120;13.136;2023-03-01T12:07:49;100371.59;;;17.48;28.81
54329;BME280;40710;51.120;13.136;2023-03-01T12:10:27;100362.31;;;17.41;27.65
54329;BME280;40710;51.120;13.136;2023-03-01T12:16:07;100382.56;;;16.44;28.63
54329;BME280;40710;51.120;13.136;2023-03-01T12:18:53;100353.19;;;17.18;26.91
54329;BME280;40710;51.120;13.136;2023-03-01T12:29:25;100344.47;;;17.16;27.73
54329;BME280;40710;51.120;13.136;2023-03-01T12:32:25;100337.81;;;16.53;27.33
54329;BME280;40710;51.120;13.136;2023-03-01T12:43:17;100324.25;;;16.72;26.67
54329;BME280;40710;51.120;13.136;2023-03-01T12:49:35;100320.28;;;16.07;27.78
54329;BME280;40710;51.120;13.136;2023-03-01T12:52:03;100295.88;;;17.01;26.16
54329;BME280;40710;51.120;13.136;2023-03-01T12:54:36;100299.97;;;16.92;26.28
54329;BME280;40710;51.120;13.136;2023-03-01T12:57:17;100311.31;;;16.24;27.60
54329;BME280;40710;51.120;13.136;2023-03-01T12:59:59;100297.50;;;16.75;26.19
54329;BME280;40710;51.120;13.136;2023-03-01T13:02:44;100305.50;;;15.88;26.01
54329;BME280;40710;51.120;13.136;2023-03-01T13:05:26;100303.13;;;16.13;26.36
54329;BME280;40710;51.120;13.136;2023-03-01T13:08:09;100297.13;;;16.67;25.99
54329;BME280;40710;51.120;13.136;2023-03-01T13:10:49;100300.03;;;16.35;25.82
54329;BME280;40710;51.120;13.136;2023-03-01T13:13:24;100294.78;;;16.62;25.66
54329;BME280;40710;51.120;13.136;2023-03-01T13:15:50;100302.16;;;15.55;25.87
54329;BME280;40710;51.120;13.136;2023-03-01T13:20:52;100300.13;;;16.04;25.80
54329;BME280;40710;51.120;13.136;2023-03-01T13:26:18;100309.09;;;16.02;26.82
54329;BME280;40710;51.120;13.136;2023-03-01T13:33:49;100297.06;;;15.96;26.83
54329;BME280;40710;51.120;13.136;2023-03-01T13:46:36;100291.50;;;16.01;25.66
54329;BME280;40710;51.120;13.136;2023-03-01T13:49:01;100278.22;;;17.00;24.25
54329;BME280;40710;51.120;13.136;2023-03-01T13:51:27;100284.41;;;16.86;24.56
54329;BME280;40710;51.120;13.136;2023-03-01T13:53:55;100287.06;;;17.00;24.66
54329;BME280;40710;51.120;13.136;2023-03-01T13:56:36;100281.47;;;17.18;24.07
54329;BME280;40710;51.120;13.136;2023-03-01T13:59:06;100283.31;;;16.61;24.81